sensor_id;sensor_type;location;lat;lon;timestamp;pressure;altitude;pressure_sealevel;temperature;humidity
40946;BME280;55635;50.264;11.918;2023-04-01T00:00:09;94019.06;;;9.46;95.06
40946;BME280;55635;50.264;11.918;2023-04-01T00:02:52;94023.09;;;9.49;94.91
40946;BME280;55635;50.264;11.918;2023-04-01T00:05:33;94016.84;;;9.18;95.70
40946;BME280;55635;50.264;11.918;2023-04-01T00:08:15;94013.69;;;9.35;95.89
40946;BME280;55635;50.264;11.918;2023-04-01T00:10:57;94017.81;;;9.49;94.41
40946;BME280;55635;50.264;11.918;2023-04-01T00:13:38;94020.69;;;9.47;94.66
40946;BME280;55635;50.264;11.918;2023-04-01T00:16:19;94003.28;;;9.58;93.97
40946;BME280;55635;50.264;11.918;2023-04-01T00:19:00;94020.31;;;9.44;94.13
40946;BME280;55635;50.264;11.918;2023-04-01T00:21:41;94003.34;;;9.51;94.03
40946;BME280;55635;50.264;11.918;2023-04-01T00:24:22;94010.50;;;9.51;93.52
40946;BME280;55635;50.264;11.918;2023-04-01T00:27:04;94008.81;;;9.56;93.12
40946;BME280;55635;50.264;11.918;2023-04-01T00:29:46;94001.69;;;9.57;92.82
40946;BME280;55635;50.264;11.918;2023-04-01T00:32:28;94002.13;;;9.54;92.94
40946;BME280;55635;50.264;11.918;2023-04-01T00:35:09;94012.47;;;9.55;92.28
40946;BME280;55635;50.264;11.918;2023-04-01T00:37:51;94013.09;;;9.33;93.20
40946;BME280;55635;50.264;11.918;2023-04-01T00:40:39;94015.25;;;9.60;92.97
40946;BME280;55635;50.264;11.918;2023-04-01T00:43:20;94011.66;;;9.55;92.02
40946;BME280;55635;50.264;11.918;2023-04-01T00:46:02;94023.13;;;9.67;91.53
40946;BME280;55635;50.264;11.918;2023-04-01T00:48:51;94005.91;;;9.58;92.56
40946;BME280;55635;50.264;11.918;2023-04-01T00:51:33;94024.19;;;9.66;91.33
40946;BME280;55635;50.264;11.918;2023-04-01T00:54:18;94011.41;;;9.81;90.73
40946;BME280;55635;50.264;11.918;2023-04-01T00:57:11;94003.28;;;9.76;90.86
40946;BME280;55635;50.264;11.918;2023-04-01T00:59:54;94011.69;;;9.91;90.19
40946;BME280;55635;50.264;11.918;2023-04-01T01:02:36;94003.94;;;9.53;91.41
40946;BME280;55635;50.264;11.918;2023-04-01T01:05:27;94012.59;;;9.60;91.82
40946;BME280;55635;50.264;11.918;2023-04-01T01:08:39;94001.44;;;9.58;90.87
40946;BME280;55635;50.264;11.918;2023-04-01T01:11:42;94003.97;;;9.90;90.22
40946;BME280;55635;50.264;11.918;2023-04-01T01:17:36;94006.47;;;9.84;90.94
40946;BME280;55635;50.264;11.918;2023-04-01T01:24:17;94009.41;;;9.76;89.45
40946;BME280;55635;50.264;11.918;2023-04-01T01:27:17;93982.63;;;9.66;89.99
40946;BME280;55635;50.264;11.918;2023-04-01T01:33:35;93998.59;;;9.60;91.11
40946;BME280;55635;50.264;11.918;2023-04-01T01:36:26;93982.84;;;9.47;91.08
40946;BME280;55635;50.264;11.918;2023-04-01T01:39:10;93996.72;;;9.60;91.17
40946;BME280;55635;50.264;11.918;2023-04-01T01:41:54;93993.88;;;9.44;92.23
40946;BME280;55635;50.264;11.918;2023-04-01T01:44:38;93992.13;;;9.56;92.17
40946;BME280;55635;50.264;11.918;2023-04-01T01:47:21;93999.06;;;9.32;93.98
40946;BME280;55635;50.264;11.918;2023-04-01T01:50:04;93997.44;;;9.31;93.78
40946;BME280;55635;50.264;11.918;2023-04-01T01:52:46;93996.38;;;9.39;93.25
40946;BME280;55635;50.264;11.918;2023-04-01T01:55:41;93992.97;;;9.32;93.17
40946;BME280;55635;50.264;11.918;2023-04-01T01:58:36;93985.63;;;9.09;94.19
40946;BME280;55635;50.264;11.918;2023-04-01T02:01:28;93988.91;;;9.29;93.91
40946;BME280;55635;50.264;11.918;2023-04-01T02:04:15;93998.19;;;9.13;94.57
40946;BME280;55635;50.264;11.918;2023-04-01T02:07:03;93991.44;;;9.17;93.72
40946;BME280;55635;50.264;11.918;2023-04-01T02:09:47;93986.81;;;8.88;94.94
40946;BME280;55635;50.264;11.918;2023-04-01T02:12:29;93986.09;;;8.99;95.31
40946;BME280;55635;50.264;11.918;2023-04-01T02:15:13;93992.84;;;8.95;95.78
40946;BME280;55635;50.264;11.918;2023-04-01T02:17:55;93981.78;;;8.80;95.60
40946;BME280;55635;50.264;11.918;2023-04-01T02:20:38;93978.16;;;8.99;95.38
40946;BME280;55635;50.264;11.918;2023-04-01T02:23:20;93986.72;;;9.01;95.14
40946;BME280;55635;50.264;11.918;2023-04-01T02:26:02;93988.22;;;9.15;93.50
40946;BME280;55635;50.264;11.918;2023-04-01T02:28:46;93979.63;;;8.95;94.95
40946;BME280;55635;50.264;11.918;2023-04-01T02:31:31;93984.06;;;9.01;95.78
40946;BME280;55635;50.264;11.918;2023-04-01T02:34:13;93987.78;;;9.18;93.93
40946;BME280;55635;50.264;11.918;2023-04-01T02:36:55;93989.03;;;9.16;93.50
40946;BME280;55635;50.264;11.918;2023-04-01T02:39:37;93983.16;;;9.14;93.17
40946;BME280;55635;50.264;11.918;2023-04-01T02:42:18;93978.22;;;9.17;93.49
40946;BME280;55635;50.264;11.918;2023-04-01T02:44:59;93980.22;;;8.97;94.47
40946;BME280;55635;50.264;11.918;2023-04-01T02:47:41;93981.56;;;9.06;93.39
40946;BME280;55635;50.264;11.918;2023-04-01T02:50:23;93989.59;;;9.18;94.24
40946;BME280;55635;50.264;11.918;2023-04-01T02:53:04;93993.44;;;8.97;94.27
40946;BME280;55635;50.264;11.918;2023-04-01T02:55:46;93994.81;;;8.75;94.88
40946;BME280;55635;50.264;11.918;2023-04-01T02:58:30;93980.00;;;8.74;95.98
40946;BME280;55635;50.264;11.918;2023-04-01T03:01:11;93991.94;;;8.83;95.93
40946;BME280;55635;50.264;11.918;2023-04-01T03:03:53;93992.63;;;8.97;95.14
40946;BME280;55635;50.264;11.918;2023-04-01T03:06:34;93999.06;;;9.07;95.56
40946;BME280;55635;50.264;11.918;2023-04-01T03:09:15;93990.94;;;8.77;95.91
40946;BME280;55635;50.264;11.918;2023-04-01T03:11:57;93995.44;;;9.02;95.44
40946;BME280;55635;50.264;11.918;2023-04-01T03:14:38;93991.97;;;8.77;95.15
40946;BME280;55635;50.264;11.918;2023-04-01T03:17:19;93972.88;;;8.74;96.43
40946;BME280;55635;50.264;11.918;2023-04-01T03:20:00;93989.53;;;8.75;95.91
40946;BME280;55635;50.264;11.918;2023-04-01T03:22:41;93974.81;;;8.61;96.30
40946;BME280;55635;50.264;11.918;2023-04-01T03:25:23;93980.09;;;8.61;97.39
40946;BME280;55635;50.264;11.918;2023-04-01T03:28:04;93986.81;;;8.57;97.33
40946;BME280;55635;50.264;11.918;2023-04-01T03:30:45;93987.19;;;8.60;96.70
40946;BME280;55635;50.264;11.918;2023-04-01T03:33:26;93979.34;;;8.47;98.08
40946;BME280;55635;50.264;11.918;2023-04-01T03:36:08;93990.34;;;8.44;97.98
40946;BME280;55635;50.264;11.918;2023-04-01T03:38:49;93991.78;;;8.47;98.25
40946;BME280;55635;50.264;11.918;2023-04-01T03:41:38;93986.47;;;8.47;98.73
40946;BME280;55635;50.264;11.918;2023-04-01T03:44:20;93986.06;;;8.50;98.32
40946;BME280;55635;50.264;11.918;2023-04-01T03:47:04;93980.50;;;8.58;97.77
40946;BME280;55635;50.264;11.918;2023-04-01T03:49:45;93984.00;;;8.52;97.05
40946;BME280;55635;50.264;11.918;2023-04-01T03:52:27;93985.09;;;8.69;97.29
40946;BME280;55635;50.264;11.918;2023-04-01T03:55:08;93976.97;;;8.70;96.58
40946;BME280;55635;50.264;11.918;2023-04-01T03:57:49;93978.34;;;8.48;96.87
40946;BME280;55635;50.264;11.918;2023-04-01T04:00:33;93980.72;;;8.56;96.88
40946;BME280;55635;50.264;11.918;2023-04-01T04:03:14;93984.47;;;8.73;96.45
40946;BME280;55635;50.264;11.918;2023-04-01T04:05:55;93976.34;;;8.68;96.46
40946;BME280;55635;50.264;11.918;2023-04-01T04:08:37;93983.81;;;8.78;96.09
40946;BME280;55635;50.264;11.918;2023-04-01T04:11:20;94001.25;;;8.86;94.60
40946;BME280;55635;50.264;11.918;2023-04-01T04:14:02;93991.81;;;8.96;94.11
40946;BME280;55635;50.264;11.918;2023-04-01T04:16:43;93996.41;;;8.83;94.21
40946;BME280;55635;50.264;11.918;2023-04-01T04:19:24;93995.59;;;8.82;93.81
40946;BME280;55635;50.264;11.918;2023-04-01T04:22:05;94002.81;;;8.93;93.94
40946;BME280;55635;50.264;11.918;2023-04-01T04:24:46;94006.06;;;8.95;93.72
40946;BME280;55635;50.264;11.918;2023-04-01T04:27:27;94005.31;;;8.88;94.48
40946;BME280;55635;50.264;11.918;2023-04-01T04:30:20;94007.94;;;8.88;95.11
40946;BME280;55635;50.264;11.918;2023-04-01T04:33:01;94002.03;;;8.93;95.14
40946;BME280;55635;50.264;11.918;2023-04-01T04:35:42;94010.72;;;8.68;97.86
40946;BME280;55635;50.264;11.918;2023-04-01T04:38:24;94017.19;;;8.72;96.86
40946;BME280;55635;50.264;11.918;2023-04-01T04:41:14;94006.63;;;8.72;97.02
40946;BME280;55635;50.264;11.918;2023-04-01T04:43:58;94017.34;;;8.77;95.97
40946;BME280;55635;50.264;11.918;2023-04-01T04:46:39;94019.25;;;8.70;95.89
40946;BME280;55635;50.264;11.918;2023-04-01T04:49:26;94027.03;;;8.90;95.57
40946;BME280;55635;50.264;11.918;2023-04-01T04:52:07;94023.66;;;8.83;95.08
40946;BME280;55635;50.264;11.918;2023-04-01T04:54:48;94019.28;;;8.64;95.76
40946;BME280;55635;50.264;11.918;2023-04-01T04:57:29;94028.56;;;8.73;95.48
40946;BME280;55635;50.264;11.918;2023-04-01T05:00:11;94029.44;;;8.67;96.65
40946;BME280;55635;50.264;11.918;2023-04-01T05:03:11;94027.13;;;8.39;97.31
40946;BME280;55635;50.264;11.918;2023-04-01T05:05:54;94049.91;;;8.27;97.96
40946;BME280;55635;50.264;11.918;2023-04-01T05:08:35;94044.06;;;8.32;98.05
40946;BME280;55635;50.264;11.918;2023-04-01T05:11:19;94026.69;;;8.49;97.99
40946;BME280;55635;50.264;11.918;2023-04-01T05:14:00;94029.25;;;8.62;96.13
40946;BME280;55635;50.264;11.918;2023-04-01T05:16:41;94034.97;;;8.59;95.97
40946;BME280;55635;50.264;11.918;2023-04-01T05:19:23;94031.13;;;8.55;96.42
40946;BME280;55635;50.264;11.918;2023-04-01T05:22:08;94037.09;;;8.75;94.96
40946;BME280;55635;50.264;11.918;2023-04-01T05:24:50;94050.63;;;8.54;95.78
40946;BME280;55635;50.264;11.918;2023-04-01T05:27:31;94040.25;;;8.59;96.01
40946;BME280;55635;50.264;11.918;2023-04-01T05:30:12;94050.28;;;8.44;96.53
40946;BME280;55635;50.264;11.918;2023-04-01T05:33:12;94019.47;;;8.31;97.09
40946;BME280;55635;50.264;11.918;2023-04-01T05:35:54;94052.69;;;8.52;96.86
40946;BME280;55635;50.264;11.918;2023-04-01T05:38:36;94052.03;;;8.56;96.79
40946;BME280;55635;50.264;11.918;2023-04-01T05:41:17;94045.16;;;8.55;95.97
40946;BME280;55635;50.264;11.918;2023-04-01T05:44:00;94050.84;;;8.52;96.34
40946;BME280;55635;50.264;11.918;2023-04-01T05:47:16;94057.91;;;8.65;96.18
40946;BME280;55635;50.264;11.918;2023-04-01T05:49:57;94053.59;;;8.70;96.78
40946;BME280;55635;50.264;11.918;2023-04-01T05:52:38;94042.47;;;8.62;96.69
40946;BME280;55635;50.264;11.918;2023-04-01T05:55:19;94058.56;;;8.54;96.89
40946;BME280;55635;50.264;11.918;2023-04-01T05:58:01;94060.72;;;8.70;96.92
40946;BME280;55635;50.264;11.918;2023-04-01T06:00:43;94062.69;;;8.74;96.98
40946;BME280;55635;50.264;11.918;2023-04-01T06:03:24;94065.22;;;8.63;96.63
40946;BME280;55635;50.264;11.918;2023-04-01T06:06:16;94064.69;;;8.48;96.38
40946;BME280;55635;50.264;11.918;2023-04-01T06:09:28;94061.50;;;8.33;97.79
40946;BME280;55635;50.264;11.918;2023-04-01T06:15:53;94056.59;;;8.43;97.37
40946;BME280;55635;50.264;11.918;2023-04-01T06:25:00;94067.84;;;9.01;96.48
40946;BME280;55635;50.264;11.918;2023-04-01T06:46:58;94073.88;;;8.77;97.04
40946;BME280;55635;50.264;11.918;2023-04-01T06:50:33;94073.94;;;9.01;95.66
40946;BME280;55635;50.264;11.918;2023-04-01T06:54:10;94090.59;;;8.70;97.17
40946;BME280;55635;50.264;11.918;2023-04-01T06:57:30;94079.84;;;8.97;96.78
40946;BME280;55635;50.264;11.918;2023-04-01T07:00:32;94076.78;;;9.00;96.57
40946;BME280;55635;50.264;11.918;2023-04-01T07:03:53;94082.47;;;8.65;98.74
40946;BME280;55635;50.264;11.918;2023-04-01T07:06:50;94064.78;;;8.66;98.19
40946;BME280;55635;50.264;11.918;2023-04-01T07:09:50;94075.28;;;8.79;97.73
40946;BME280;55635;50.264;11.918;2023-04-01T07:12:47;94088.63;;;8.91;98.99
40946;BME280;55635;50.264;11.918;2023-04-01T07:16:19;94081.09;;;8.94;97.84
40946;BME280;55635;50.264;11.918;2023-04-01T07:19:29;94080.63;;;9.04;98.36
40946;BME280;55635;50.264;11.918;2023-04-01T07:22:48;94088.00;;;8.95;97.63
40946;BME280;55635;50.264;11.918;2023-04-01T07:25:53;94084.09;;;9.04;97.59
40946;BME280;55635;50.264;11.918;2023-04-01T07:28:52;94084.47;;;8.70;96.87
40946;BME280;55635;50.264;11.918;2023-04-01T07:32:47;94079.97;;;8.77;99.65
40946;BME280;55635;50.264;11.918;2023-04-01T07:36:03;94088.47;;;8.86;98.51
40946;BME280;55635;50.264;11.918;2023-04-01T07:39:16;94081.03;;;8.69;99.22
40946;BME280;55635;50.264;11.918;2023-04-01T07:46:21;94087.81;;;8.90;100.00
40946;BME280;55635;50.264;11.918;2023-04-01T07:49:30;94077.03;;;9.23;100.00
40946;BME280;55635;50.264;11.918;2023-04-01T07:55:54;94095.84;;;9.08;99.51
40946;BME280;55635;50.264;11.918;2023-04-01T07:59:11;94098.78;;;8.94;98.59
40946;BME280;55635;50.264;11.918;2023-04-01T08:05:57;94084.22;;;9.41;98.56
40946;BME280;55635;50.264;11.918;2023-04-01T08:09:20;94093.22;;;9.58;98.27
40946;BME280;55635;50.264;11.918;2023-04-01T08:21:35;94095.75;;;9.96;95.99
40946;BME280;55635;50.264;11.918;2023-04-01T08:24:37;94096.81;;;9.88;95.52
40946;BME280;55635;50.264;11.918;2023-04-01T08:27:36;94096.06;;;9.38;94.71
40946;BME280;55635;50.264;11.918;2023-04-01T08:30:52;94105.81;;;9.38;96.56
40946;BME280;55635;50.264;11.918;2023-04-01T08:33:34;94111.00;;;8.88;97.45
40946;BME280;55635;50.264;11.918;2023-04-01T08:36:36;94105.03;;;8.99;100.00
40946;BME280;55635;50.264;11.918;2023-04-01T08:49:16;94106.03;;;9.61;96.30
40946;BME280;55635;50.264;11.918;2023-04-01T08:58:59;94106.03;;;10.04;98.50
40946;BME280;55635;50.264;11.918;2023-04-01T09:24:46;94129.72;;;10.42;94.30
40946;BME280;55635;50.264;11.918;2023-04-01T09:27:43;94111.28;;;10.83;94.26
40946;BME280;55635;50.264;11.918;2023-04-01T09:40:42;94121.56;;;10.00;95.52
40946;BME280;55635;50.264;11.918;2023-04-01T10:17:03;94116.03;;;10.26;96.17
40946;BME280;55635;50.264;11.918;2023-04-01T10:35:28;94131.53;;;9.55;98.34
40946;BME280;55635;50.264;11.918;2023-04-01T11:01:02;94113.88;;;9.74;93.79
40946;BME280;55635;50.264;11.918;2023-04-01T11:22:24;94120.41;;;9.47;96.25
40946;BME280;55635;50.264;11.918;2023-04-01T11:36:00;94153.34;;;9.19;100.00
40946;BME280;55635;50.264;11.918;2023-04-01T11:45:32;94114.88;;;9.73;100.00
40946;BME280;55635;50.264;11.918;2023-04-01T12:14:20;94134.72;;;10.13;94.67
40946;BME280;55635;50.264;11.918;2023-04-01T12:17:45;94139.88;;;10.26;95.05
40946;BME280;55635;50.264;11.918;2023-04-01T12:20:50;94137.75;;;10.10;93.74
40946;BME280;55635;50.264;11.918;2023-04-01T12:24:15;94134.88;;;9.94;95.35
40946;BME280;55635;50.264;11.918;2023-04-01T12:27:32;94139.84;;;10.08;95.04
40946;BME280;55635;50.264;11.918;2023-04-01T12:36:53;94147.56;;;9.60;99.13
40946;BME280;55635;50.264;11.918;2023-04-01T12:45:42;94136.72;;;10.18;97.15
40946;BME280;55635;50.264;11.918;2023-04-01T12:52:13;94136.88;;;9.73;99.18
40946;BME280;55635;50.264;11.918;2023-04-01T13:15:01;94158.56;;;9.33;100.00
40946;BME280;55635;50.264;11.918;2023-04-01T13:27:13;94152.16;;;9.47;100.00
40946;BME280;55635;50.264;11.918;2023-04-01T13:36:16;94149.53;;;9.71;100.00
40946;BME280;55635;50.264;11.918;2023-04-01T13:42:21;94150.22;;;9.85;100.00
40946;BME280;55635;50.264;11.918;2023-04-01T13:45:22;94157.03;;;9.99;99.41
40946;BME280;55635;50.264;11.918;2023-04-01T14:00:38;94150.69;;;10.00;99.47
40946;BME280;55635;50.264;11.918;2023-04-01T14:11:07;94161.94;;;10.93;95.71
40946;BME280;55635;50.264;11.918;2023-04-01T14:14:30;94165.13;;;10.83;97.48
40946;BME280;55635;50.264;11.918;2023-04-01T14:20:38;94164.50;;;10.70;98.05
40946;BME280;55635;50.264;11.918;2023-04-01T14:27:16;94174.66;;;10.73;97.19
40946;BME280;55635;50.264;11.918;2023-04-01T14:46:40;94175.97;;;10.82;95.04
40946;BME280;55635;50.264;11.918;2023-04-01T14:49:46;94158.81;;;10.30;96.75
40946;BME280;55635;50.264;11.918;2023-04-01T14:52:33;94159.84;;;10.65;96.80
40946;BME280;55635;50.264;11.918;2023-04-01T14:55:26;94169.69;;;10.76;98.09
40946;BME280;55635;50.264;11.918;2023-04-01T15:07:43;94188.19;;;10.22;99.97
40946;BME280;55635;50.264;11.918;2023-04-01T15:32:42;94189.97;;;10.03;100.00
40946;BME280;55635;50.264;11.918;2023-04-01T15:39:16;94195.16;;;10.59;100.00
40946;BME280;55635;50.264;11.918;2023-04-01T15:42:31;94195.25;;;10.89;100.00
40946;BME280;55635;50.264;11.918;2023-04-01T16:00:49;94185.16;;;10.79;98.03
40946;BME280;55635;50.264;11.918;2023-04-01T16:13:58;94203.81;;;10.55;100.00
40946;BME280;55635;50.264;11.918;2023-04-01T16:26:26;94217.41;;;10.76;99.80
40946;BME280;55635;50.264;11.918;2023-04-01T16:39:04;94229.13;;;10.69;96.58
40946;BME280;55635;50.264;11.918;2023-04-01T16:53:48;94245.28;;;10.43;98.10
40946;BME280;55635;50.264;11.918;2023-04-01T17:00:09;94240.06;;;10.36;99.27
40946;BME280;55635;50.264;11.918;2023-04-01T17:06:29;94245.56;;;10.34;99.26
40946;BME280;55635;50.264;11.918;2023-04-01T17:18:38;94263.13;;;10.29;100.00
40946;BME280;55635;50.264;11.918;2023-04-01T17:28:33;94267.41;;;10.30;100.00
40946;BME280;55635;50.264;11.918;2023-04-01T17:38:39;94281.56;;;10.17;100.00
40946;BME280;55635;50.264;11.918;2023-04-01T17:44:38;94291.50;;;10.22;100.00
40946;BME280;55635;50.264;11.918;2023-04-01T18:11:59;94314.97;;;10.68;94.69
40946;BME280;55635;50.264;11.918;2023-04-01T18:15:01;94322.00;;;10.80;93.89
40946;BME280;55635;50.264;11.918;2023-04-01T18:20:54;94329.88;;;10.87;92.91
40946;BME280;55635;50.264;11.918;2023-04-01T18:23:50;94322.06;;;10.92;92.37
40946;BME280;55635;50.264;11.918;2023-04-01T18:26:35;94329.59;;;10.95;92.39
40946;BME280;55635;50.264;11.918;2023-04-01T18:29:30;94325.78;;;10.91;92.79
40946;BME280;55635;50.264;11.918;2023-04-01T18:32:35;94333.28;;;10.94;92.83
40946;BME280;55635;50.264;11.918;2023-04-01T18:39:03;94351.88;;;11.12;92.20
40946;BME280;55635;50.264;11.918;2023-04-01T18:42:10;94352.31;;;11.09;92.69
40946;BME280;55635;50.264;11.918;2023-04-01T18:45:17;94360.47;;;11.08;92.78
40946;BME280;55635;50.264;11.918;2023-04-01T18:48:16;94354.91;;;11.16;93.09
40946;BME280;55635;50.264;11.918;2023-04-01T18:51:37;94362.31;;;11.07;93.25
40946;BME280;55635;50.264;11.918;2023-04-01T18:54:32;94351.56;;;11.02;93.62
40946;BME280;55635;50.264;11.918;2023-04-01T18:57:19;94366.16;;;11.11;93.71
40946;BME280;55635;50.264;11.918;2023-04-01T19:00:13;94365.44;;;11.22;92.58
40946;BME280;55635;50.264;11.918;2023-04-01T19:03:27;94354.66;;;10.99;93.75
40946;BME280;55635;50.264;11.918;2023-04-01T19:06:40;94366.41;;;11.10;93.32
40946;BME280;55635;50.264;11.918;2023-04-01T19:09:24;94371.34;;;11.06;93.45
40946;BME280;55635;50.264;11.918;2023-04-01T19:21:58;94381.63;;;10.96;94.81
40946;BME280;55635;50.264;11.918;2023-04-01T19:25:40;94397.53;;;10.96;94.69
40946;BME280;55635;50.264;11.918;2023-04-01T19:37:57;94404.47;;;10.72;97.04
40946;BME280;55635;50.264;11.918;2023-04-01T19:46:36;94408.09;;;10.78;95.85
40946;BME280;55635;50.264;11.918;2023-04-01T19:52:37;94414.88;;;10.67;96.67
40946;BME280;55635;50.264;11.918;2023-04-01T19:55:32;94420.59;;;10.64;95.90
40946;BME280;55635;50.264;11.918;2023-04-01T19:58:48;94419.31;;;10.73;95.37
40946;BME280;55635;50.264;11.918;2023-04-01T20:04:52;94427.72;;;10.95;94.67
40946;BME280;55635;50.264;11.918;2023-04-01T20:07:41;94425.94;;;10.89;93.73
40946;BME280;55635;50.264;11.918;2023-04-01T20:11:08;94433.75;;;11.09;92.80
40946;BME280;55635;50.264;11.918;2023-04-01T20:17:47;94434.03;;;11.01;92.75
40946;BME280;55635;50.264;11.918;2023-04-01T20:26:10;94442.81;;;11.19;91.29
40946;BME280;55635;50.264;11.918;2023-04-01T20:36:36;94463.50;;;11.11;91.53
40946;BME280;55635;50.264;11.918;2023-04-01T20:43:29;94463.88;;;11.14;91.98
40946;BME280;55635;50.264;11.918;2023-04-01T20:46:23;94459.59;;;11.13;91.68
40946;BME280;55635;50.264;11.918;2023-04-01T20:52:24;94469.56;;;11.18;92.21
40946;BME280;55635;50.264;11.918;2023-04-01T20:55:26;94475.09;;;11.16;92.11
40946;BME280;55635;50.264;11.918;2023-04-01T21:10:52;94486.31;;;11.18;93.18
40946;BME280;55635;50.264;11.918;2023-04-01T21:23:26;94492.03;;;11.15;93.26
40946;BME280;55635;50.264;11.918;2023-04-01T21:36:43;94496.66;;;10.95;94.82
40946;BME280;55635;50.264;11.918;2023-04-01T21:42:55;94509.69;;;11.03;94.25
40946;BME280;55635;50.264;11.918;2023-04-01T21:49:27;94518.22;;;11.05;93.91
40946;BME280;55635;50.264;11.918;2023-04-01T21:52:49;94521.22;;;11.15;93.77
40946;BME280;55635;50.264;11.918;2023-04-01T21:59:16;94527.34;;;11.16;92.49
40946;BME280;55635;50.264;11.918;2023-04-01T22:18:33;94532.28;;;11.12;93.41
40946;BME280;55635;50.264;11.918;2023-04-01T22:21:33;94531.03;;;11.15;93.05
40946;BME280;55635;50.264;11.918;2023-04-01T22:27:49;94543.91;;;11.11;92.93
40946;BME280;55635;50.264;11.918;2023-04-01T22:30:59;94544.28;;;11.15;93.37
40946;BME280;55635;50.264;11.918;2023-04-01T22:36:39;94550.03;;;11.12;93.05
40946;BME280;55635;50.264;11.918;2023-04-01T22:42:47;94558.44;;;11.02;92.87
40946;BME280;55635;50.264;11.918;2023-04-01T22:49:04;94566.78;;;11.06;93.32
40946;BME280;55635;50.264;11.918;2023-04-01T22:55:30;94568.44;;;11.07;92.61
40946;BME280;55635;50.264;11.918;2023-04-01T22:58:17;94554.78;;;11.03;92.57
40946;BME280;55635;50.264;11.918;2023-04-01T23:01:06;94564.09;;;11.12;92.26
40946;BME280;55635;50.264;11.918;2023-04-01T23:03:50;94549.88;;;11.07;92.21
40946;BME280;55635;50.264;11.918;2023-04-01T23:06:42;94573.44;;;11.21;91.69
40946;BME280;55635;50.264;11.918;2023-04-01T23:09:33;94569.56;;;11.17;91.46
40946;BME280;55635;50.264;11.918;2023-04-01T23:12:16;94577.69;;;11.22;91.10
40946;BME280;55635;50.264;11.918;2023-04-01T23:15:03;94577.50;;;11.24;91.21
40946;BME280;55635;50.264;11.918;2023-04-01T23:18:27;94587.09;;;11.25;91.27
40946;BME280;55635;50.264;11.918;2023-04-01T23:27:33;94585.38;;;11.06;91.69
40946;BME280;55635;50.264;11.918;2023-04-01T23:30:50;94592.09;;;11.02;92.35
40946;BME280;55635;50.264;11.918;2023-04-01T23:33:31;94587.31;;;10.85;92.48
40946;BME280;55635;50.264;11.918;2023-04-01T23:36:14;94600.34;;;10.87;93.18
40946;BME280;55635;50.264;11.918;2023-04-01T23:38:56;94605.50;;;10.82;93.20
40946;BME280;55635;50.264;11.918;2023-04-01T23:41:39;94608.75;;;10.77;93.14
40946;BME280;55635;50.264;11.918;2023-04-01T23:44:20;94611.41;;;10.77;93.96
40946;BME280;55635;50.264;11.918;2023-04-01T23:47:03;94611.34;;;10.90;93.18
40946;BME280;55635;50.264;11.918;2023-04-01T23:52:46;94623.44;;;10.73;93.27
40946;BME280;55635;50.264;11.918;2023-04-01T23:55:32;94622.66;;;10.73;93.07
40946;BME280;55635;50.264;11.918;2023-04-01T23:58:27;94626.50;;;10.77;92.91
